Pagrindinis puslapis
METAR-TAF:

METAR-TAF

Oro uostai :

Liepojos tarptautinis oro uostas

Liepoja, Latvija

platuma: 56-31N, ilguma: 021-05E, Aukštis: 5 m

Dabartinis oras

Ataskaita buvo paskelbta 21 minutes, ne 21:20 UTC
Vėjas 3 kt iš Rytų
Temperatūra 15°C
Drėgmė 82%
Slėgis 1021 hPa
Matomumas 10 km arba daugiau

METAR: EVLA 172120Z AUTO 09003KT 9999 NCD 15/12 Q1021

Laikas: 00:41 (21:41 UTC)

Prognozė

Ataskaita buvo paskelbta 1 valandą ir 41 minutes, ne 20:00 UTC
Prognozė galioja nuo 17 metu 21 UTC su 18 metu 21 UTC
Vėjas 5 kt iš Pietų
Matomumas 10 km arba daugiau
nėra debesų žemiau 1500 m ir nėra kamuolinių lietaus debesų
Laikinai
nuo 17 metu 21 UTC su 18 metu 03 UTC
Matomumas: 0600 m
Išsisklaidę debesys ne aukštis 200 ft
rūkas

TAF: EVLA 172000Z 1721/1821 19005KT CAVOK TEMPO 1721/1803 0600 FG SCT002

Orai ataskaitas ir orų prognozės (METAR, TAF).

turimą stotys yra geltonos ir raudonos taškus žemėlapyje.

Perkelti pele per norėdami pamatyti stoties vardą.

Tada spustelėkite, norėdami matyti oro stebėjimo ir prognozės.

Norėdami pakeisti žemėlapį: spustelėkite ant žalios mygtukų su juodo kryžiaus žemyn,; žalią mygtuką su brūkšneliu, jei norite nutolinti; arba žalių rodyklių gretimoms žemėlapius.


METAR-TAF: